createdAt,value
2019-06-20T00:00:52.517Z,0.00
2019-06-20T00:01:52.588Z,0.00
2019-06-20T00:02:50.803Z,0.00
2019-06-20T00:03:53.521Z,0.00
2019-06-20T00:04:51.310Z,0.00
2019-06-20T00:05:53.021Z,0.00
2019-06-20T00:06:52.624Z,0.00
2019-06-20T00:07:53.635Z,0.00
2019-06-20T00:08:53.557Z,0.00
2019-06-20T00:10:17.260Z,0.00
2019-06-20T00:10:54.056Z,0.00
2019-06-20T00:11:56.061Z,0.00
2019-06-20T00:13:00.371Z,0.00
2019-06-20T00:13:53.821Z,0.00
2019-06-20T00:15:01.479Z,0.00
2019-06-20T00:16:17.505Z,0.00
2019-06-20T00:16:55.057Z,0.00
2019-06-20T00:18:00.108Z,0.00
2019-06-20T00:18:57.615Z,0.00
2019-06-20T00:19:55.559Z,0.00
2019-06-20T00:21:02.062Z,0.00
2019-06-20T00:21:58.100Z,0.00
2019-06-20T00:22:56.123Z,0.00
2019-06-20T00:23:55.624Z,0.00
2019-06-20T00:24:54.729Z,0.00
2019-06-20T00:25:56.599Z,0.00
2019-06-20T00:27:07.209Z,0.00
2019-06-20T00:27:55.223Z,0.00
2019-06-20T00:28:55.427Z,0.00
2019-06-20T00:29:56.390Z,0.00
2019-06-20T00:30:57.566Z,0.00
2019-06-20T00:31:57.602Z,0.00
2019-06-20T00:32:58.093Z,0.00
2019-06-20T00:34:08.122Z,0.00
2019-06-20T00:34:58.620Z,0.00
2019-06-20T00:36:04.567Z,0.00
2019-06-20T00:37:20.088Z,0.00
2019-06-20T00:37:57.404Z,0.00
2019-06-20T00:38:57.513Z,0.00
2019-06-20T00:40:00.630Z,0.00
2019-06-20T00:40:59.520Z,0.00
2019-06-20T00:41:58.039Z,0.00
2019-06-20T00:43:15.878Z,0.00
2019-06-20T00:45:33.506Z,0.00
2019-06-20T00:46:31.543Z,0.00
2019-06-20T00:47:46.571Z,0.00
2019-06-20T00:48:32.017Z,0.00
2019-06-20T00:49:33.119Z,0.00
2019-06-20T00:50:31.420Z,0.00
2019-06-20T00:51:31.635Z,0.00
2019-06-20T00:52:31.855Z,0.00
2019-06-20T00:53:33.578Z,0.00
2019-06-20T00:54:57.074Z,0.00
2019-06-20T00:55:35.071Z,0.00
2019-06-20T00:56:35.614Z,0.00
2019-06-20T00:57:36.646Z,0.00
2019-06-20T00:58:35.558Z,0.00
2019-06-20T01:00:11.062Z,0.00
2019-06-20T01:00:33.370Z,0.00
2019-06-20T01:01:35.088Z,0.00
2019-06-20T01:03:10.576Z,0.00
2019-06-20T01:03:49.765Z,0.00
2019-06-20T01:04:34.175Z,0.00
2019-06-20T01:05:34.392Z,0.00
2019-06-20T01:06:36.579Z,0.00
2019-06-20T01:07:36.601Z,0.00
2019-06-20T01:09:01.639Z,0.00
2019-06-20T01:09:37.138Z,0.00
2019-06-20T01:10:37.076Z,0.00
2019-06-20T01:11:39.263Z,0.00
2019-06-20T01:12:35.750Z,0.00
2019-06-20T01:13:36.937Z,0.00
2019-06-20T01:14:59.167Z,0.00
2019-06-20T01:15:38.092Z,0.00
2019-06-20T01:16:38.591Z,0.00
2019-06-20T01:17:43.632Z,0.00
2019-06-20T01:18:40.619Z,0.00
2019-06-20T01:19:39.132Z,0.00
2019-06-20T01:20:41.087Z,0.00
2019-06-20T01:21:37.463Z,0.00
2019-06-20T01:22:41.579Z,0.00
2019-06-20T01:23:39.683Z,0.00
2019-06-20T01:24:41.576Z,0.00
2019-06-20T01:25:42.095Z,0.00
2019-06-20T01:26:46.076Z,0.00
2019-06-20T01:27:42.107Z,0.00
2019-06-20T01:28:38.611Z,0.00
2019-06-20T01:29:46.618Z,0.00
2019-06-20T01:30:39.966Z,0.00
2019-06-20T01:31:39.192Z,0.00
2019-06-20T01:32:43.077Z,0.00
2019-06-20T01:33:41.083Z,0.00
2019-06-20T01:34:39.813Z,0.00
2019-06-20T01:35:42.020Z,0.00
2019-06-20T01:36:44.543Z,0.00
2019-06-20T01:37:42.094Z,0.00
2019-06-20T01:38:42.103Z,0.00
2019-06-20T01:39:43.580Z,0.00
2019-06-20T01:40:42.590Z,0.00
2019-06-20T01:41:42.641Z,0.00
2019-06-20T01:42:43.130Z,0.00
2019-06-20T01:43:50.563Z,0.00
2019-06-20T01:45:06.088Z,0.00
2019-06-20T01:45:41.712Z,0.00
2019-06-20T01:46:43.582Z,0.00
2019-06-20T01:47:45.709Z,0.00
2019-06-20T01:48:44.130Z,0.00
2019-06-20T01:49:44.107Z,0.00
2019-06-20T01:50:43.560Z,0.00
2019-06-20T01:51:43.813Z,0.00
2019-06-20T01:52:44.580Z,0.00
2019-06-20T01:53:47.113Z,0.00
2019-06-20T01:54:43.335Z,0.00
2019-06-20T01:55:44.534Z,0.00
2019-06-20T01:56:44.647Z,0.00
2019-06-20T01:57:43.875Z,0.00
2019-06-20T01:58:47.620Z,0.00
2019-06-20T01:59:46.050Z,0.00
2019-06-20T02:00:46.100Z,0.00
2019-06-20T02:01:44.626Z,0.00
2019-06-20T02:02:49.181Z,0.00
2019-06-20T02:03:46.545Z,0.00
2019-06-20T02:04:47.088Z,0.00
2019-06-20T02:05:47.097Z,0.00
2019-06-20T02:06:46.461Z,0.00
2019-06-20T02:07:47.088Z,0.00
2019-06-20T02:08:53.626Z,0.00
2019-06-20T02:09:47.630Z,0.00
2019-06-20T02:10:50.534Z,0.00
2019-06-20T02:12:15.130Z,0.00
2019-06-20T05:06:37.573Z,6576.00
2019-06-20T05:16:21.438Z,8028.00
2019-06-20T05:17:42.341Z,8044.00
2019-06-20T05:26:39.989Z,8216.00
2019-06-20T05:27:15.605Z,10856.00
2019-06-20T05:30:14.162Z,12368.00
2019-06-20T05:30:47.444Z,12740.00
2019-06-20T06:22:18.582Z,21440.00
2019-06-20T06:23:29.017Z,21344.00
2019-06-20T06:24:15.003Z,25152.00
2019-06-20T06:25:11.015Z,21216.00
2019-06-20T06:26:03.531Z,17536.00
2019-06-20T06:27:25.279Z,20352.00
2019-06-20T06:31:20.988Z,12304.00
2019-06-20T06:32:48.312Z,21248.00
2019-06-20T06:33:43.410Z,20928.00
2019-06-20T06:34:21.778Z,21632.00
2019-06-20T06:35:16.870Z,21696.00
2019-06-20T06:36:21.972Z,22784.00
2019-06-20T06:39:17.919Z,25792.00
2019-06-20T06:39:50.276Z,22976.00
2019-06-20T06:41:13.274Z,28096.00
2019-06-20T06:41:55.261Z,28576.00
2019-06-20T06:42:50.892Z,33632.00
2019-06-20T06:43:51.810Z,29248.00
2019-06-20T06:45:13.262Z,32128.00
2019-06-20T06:45:58.504Z,49440.00
2019-06-20T06:47:06.355Z,47680.00
2019-06-20T06:47:53.342Z,11460.00
2019-06-20T06:48:53.270Z,13148.00
2019-06-20T06:49:52.919Z,16384.00
2019-06-20T06:50:56.631Z,20320.00
2019-06-20T06:51:56.281Z,12460.00
2019-06-20T06:52:54.316Z,10880.00
2019-06-20T06:57:22.403Z,14120.00
2019-06-20T06:58:11.848Z,17376.00
2019-06-20T06:59:08.510Z,17568.00
2019-06-20T07:00:06.817Z,16084.00
2019-06-20T07:01:13.563Z,17216.00
2019-06-20T07:02:09.154Z,18368.00
2019-06-20T07:03:20.138Z,18560.00
2019-06-20T07:04:27.588Z,19168.00
2019-06-20T07:07:08.956Z,30144.00
2019-06-20T07:07:40.402Z,17792.00
2019-06-20T07:08:54.475Z,19744.00
2019-06-20T07:09:39.961Z,45344.00
2019-06-20T07:10:40.402Z,18688.00
2019-06-20T07:12:00.129Z,18624.00
2019-06-20T07:12:40.946Z,25536.00
2019-06-20T07:13:47.893Z,20960.00
2019-06-20T07:14:42.413Z,19584.00
2019-06-20T07:17:16.006Z,29152.00
2019-06-20T07:18:12.606Z,65952.00
2019-06-20T07:19:35.645Z,47552.00
2019-06-20T07:20:15.136Z,24224.00
2019-06-20T07:21:18.207Z,65952.00
2019-06-20T07:22:28.170Z,28416.00
2019-06-20T07:23:13.595Z,16768.00
2019-06-20T07:24:18.329Z,19616.00
2019-06-20T07:25:20.675Z,42752.00
2019-06-20T07:26:16.206Z,13644.00
2019-06-20T07:27:21.148Z,13016.00
2019-06-20T07:28:19.607Z,14920.00
2019-06-20T07:29:14.642Z,16272.00
2019-06-20T07:30:29.673Z,11380.00
2019-06-20T07:31:16.655Z,9780.00
2019-06-20T07:32:30.168Z,9868.00
2019-06-20T07:33:35.547Z,9444.00
2019-06-20T07:34:31.508Z,9660.00
2019-06-20T07:35:18.672Z,10836.00
2019-06-20T07:36:20.680Z,11180.00
2019-06-20T07:37:38.262Z,11416.00
2019-06-20T07:38:22.243Z,10832.00
2019-06-20T07:41:05.283Z,8148.00
2019-06-20T07:42:21.506Z,8512.00
2019-06-20T07:43:24.827Z,9108.00
2019-06-20T07:44:10.276Z,8856.00
2019-06-20T07:44:52.282Z,7524.00
2019-06-20T07:46:12.132Z,5736.00
2019-06-20T07:46:50.023Z,4484.00
2019-06-20T07:48:12.250Z,3496.00
2019-06-20T07:49:21.251Z,3072.00
2019-06-20T07:49:52.773Z,3060.00
2019-06-20T07:52:39.243Z,3372.00
2019-06-20T07:53:46.731Z,3416.00
2019-06-20T07:54:46.532Z,3628.00
2019-06-20T07:57:33.135Z,3824.00
2019-06-20T07:57:56.152Z,3300.00
2019-06-20T07:58:59.173Z,2944.00
2019-06-20T07:59:59.613Z,2820.00
2019-06-20T08:00:59.672Z,3000.00
2019-06-20T08:02:05.146Z,3212.00
2019-06-20T08:03:09.135Z,3440.00
2019-06-20T08:04:22.708Z,3388.00
2019-06-20T08:05:00.389Z,3460.00
2019-06-20T08:07:36.990Z,4048.00
2019-06-20T08:08:51.011Z,5148.00
2019-06-20T08:09:44.408Z,5084.00
2019-06-20T08:12:11.439Z,9648.00
2019-06-20T08:13:05.008Z,9044.00
2019-06-20T08:14:02.984Z,96544.00
2019-06-20T08:15:14.478Z,98880.00
2019-06-20T08:16:03.596Z,99648.00
2019-06-20T08:17:05.000Z,97696.00
2019-06-20T08:18:05.025Z,99360.00
2019-06-20T08:19:05.093Z,98784.00
2019-06-20T08:20:02.789Z,100512.00
2019-06-20T08:21:06.032Z,102944.00
2019-06-20T08:22:02.022Z,102816.00
2019-06-20T08:23:26.113Z,102560.00
2019-06-20T08:24:06.958Z,98240.00
2019-06-20T08:26:44.060Z,98848.00
2019-06-20T08:27:43.721Z,9828.00
2019-06-20T08:28:35.243Z,91680.00
2019-06-20T08:29:36.916Z,91520.00
2019-06-20T08:30:38.173Z,95968.00
2019-06-20T08:31:35.834Z,100704.00
2019-06-20T08:33:03.603Z,100960.00
2019-06-20T08:33:39.905Z,95776.00
2019-06-20T08:34:39.659Z,97728.00
2019-06-20T08:35:36.674Z,30272.00
2019-06-20T08:36:38.301Z,62752.00
2019-06-20T08:37:38.735Z,13644.00
2019-06-20T08:38:38.673Z,12272.00
2019-06-20T08:39:37.357Z,10960.00
2019-06-20T08:40:37.805Z,8960.00
2019-06-20T08:42:04.298Z,9636.00
2019-06-20T08:42:53.896Z,11112.00
2019-06-20T08:43:40.307Z,13348.00
2019-06-20T08:44:39.049Z,17600.00
2019-06-20T08:45:42.038Z,20480.00
2019-06-20T08:46:39.170Z,96032.00
2019-06-20T08:47:38.538Z,22976.00
2019-06-20T08:48:43.685Z,79136.00
2019-06-20T08:49:42.175Z,72864.00
2019-06-20T08:50:39.196Z,78336.00
2019-06-20T08:52:03.424Z,84096.00
2019-06-20T08:52:42.226Z,70784.00
2019-06-20T08:54:05.356Z,29472.00
2019-06-20T08:54:39.806Z,57216.00
2019-06-20T08:55:41.777Z,100096.00
2019-06-20T08:56:41.714Z,84864.00
2019-06-20T08:57:41.379Z,99872.00
2019-06-20T08:58:47.182Z,101920.00
2019-06-20T08:59:44.190Z,21952.00
2019-06-20T09:00:58.006Z,15868.00
2019-06-20T09:01:54.749Z,15676.00
2019-06-20T09:02:46.688Z,80416.00
2019-06-20T09:03:46.225Z,85888.00
2019-06-20T09:05:04.310Z,16224.00
2019-06-20T09:05:44.719Z,51264.00
2019-06-20T09:06:44.841Z,22848.00
2019-06-20T09:08:06.755Z,18496.00
2019-06-20T09:08:42.250Z,15876.00
2019-06-20T09:09:59.824Z,13460.00
2019-06-20T09:10:42.829Z,53760.00
2019-06-20T09:12:06.590Z,17728.00
2019-06-20T09:12:53.628Z,93536.00
2019-06-20T09:13:43.157Z,70976.00
2019-06-20T09:14:45.416Z,65824.00
2019-06-20T09:17:52.928Z,70368.00
2019-06-20T09:18:21.226Z,96864.00
2019-06-20T09:19:25.278Z,80320.00
2019-06-20T09:20:18.708Z,35648.00
2019-06-20T09:21:25.657Z,70048.00
2019-06-20T09:22:38.812Z,70336.00
2019-06-20T09:23:20.681Z,67616.00
2019-06-20T09:24:29.496Z,78944.00
2019-06-20T09:25:19.378Z,15616.00
2019-06-20T09:26:31.298Z,11632.00
2019-06-20T09:27:19.790Z,30656.00
2019-06-20T09:28:22.676Z,49312.00
2019-06-20T09:29:25.292Z,53344.00
2019-06-20T09:30:19.300Z,72256.00
2019-06-20T09:31:26.202Z,66560.00
2019-06-20T09:32:22.772Z,66432.00
2019-06-20T09:33:21.503Z,72544.00
2019-06-20T09:34:20.322Z,83456.00
2019-06-20T09:35:25.354Z,24064.00
2019-06-20T09:36:20.554Z,85664.00
2019-06-20T09:37:42.494Z,40736.00
2019-06-20T09:38:21.782Z,109568.00
2019-06-20T09:39:46.883Z,98976.00
2019-06-20T09:40:23.838Z,113088.00
2019-06-20T09:41:52.733Z,28704.00
2019-06-20T09:42:22.214Z,20960.00
2019-06-20T09:43:37.327Z,33440.00
2019-06-20T09:44:28.822Z,28576.00
2019-06-20T09:45:25.202Z,24704.00
2019-06-20T09:46:56.432Z,76704.00
2019-06-20T09:47:29.200Z,24000.00
2019-06-20T09:48:26.713Z,14328.00
2019-06-20T09:49:25.698Z,13592.00
2019-06-20T09:50:29.856Z,13520.00
2019-06-20T09:51:24.374Z,13504.00
2019-06-20T09:52:34.443Z,14972.00
2019-06-20T09:53:38.279Z,25632.00
2019-06-20T09:54:24.859Z,30080.00
2019-06-20T09:55:35.716Z,15776.00
2019-06-20T09:56:30.347Z,16256.00
2019-06-20T09:57:40.306Z,17280.00
2019-06-20T09:58:27.222Z,17536.00
2019-06-20T09:59:28.190Z,16000.00
2019-06-20T10:02:38.147Z,16864.00
2019-06-20T10:02:59.163Z,15328.00
2019-06-20T10:05:34.510Z,24704.00
2019-06-20T10:06:48.605Z,32480.00
2019-06-20T10:07:35.370Z,42976.00
2019-06-20T10:08:36.482Z,23200.00
2019-06-20T10:09:37.370Z,85216.00
2019-06-20T10:10:36.989Z,46784.00
2019-06-20T10:11:39.665Z,114752.00
2019-06-20T10:12:55.864Z,106400.00
2019-06-20T10:13:34.379Z,71840.00
2019-06-20T10:14:37.943Z,106432.00
2019-06-20T10:18:22.658Z,27552.00
2019-06-20T10:19:30.389Z,31840.00
2019-06-20T10:20:19.260Z,28224.00
2019-06-20T10:21:08.608Z,43392.00
2019-06-20T10:22:15.124Z,45568.00
2019-06-20T10:23:08.639Z,45504.00
2019-06-20T10:24:10.668Z,37152.00
2019-06-20T10:25:07.741Z,29696.00
2019-06-20T10:26:33.349Z,21248.00
2019-06-20T10:29:00.507Z,96640.00
2019-06-20T10:31:17.740Z,44640.00
2019-06-20T10:33:50.835Z,35040.00
2019-06-20T10:35:00.511Z,31200.00
2019-06-20T10:35:45.840Z,28992.00
2019-06-20T10:36:50.296Z,26752.00
2019-06-20T10:37:48.366Z,37568.00
2019-06-20T10:38:56.850Z,48192.00
2019-06-20T10:39:46.134Z,43840.00
2019-06-20T10:40:49.815Z,34976.00
2019-06-20T10:41:48.474Z,37440.00
2019-06-20T10:42:47.993Z,78208.00
2019-06-20T10:43:47.503Z,91072.00
2019-06-20T10:44:52.469Z,78912.00
2019-06-20T10:46:10.457Z,20480.00
2019-06-20T10:47:12.996Z,16992.00
2019-06-20T10:48:13.989Z,16608.00
2019-06-20T10:49:15.255Z,16384.00
2019-06-20T10:56:35.344Z,12904.00
2019-06-20T10:57:19.191Z,13408.00
2019-06-20T10:58:50.675Z,13756.00
2019-06-20T10:59:17.367Z,13448.00
2019-06-20T11:00:31.861Z,13396.00
2019-06-20T11:06:09.134Z,35424.00
2019-06-20T11:07:01.945Z,26688.00
2019-06-20T11:08:02.492Z,21472.00
2019-06-20T11:09:01.357Z,21472.00
2019-06-20T11:10:04.556Z,22880.00
2019-06-20T11:12:45.773Z,20640.00
2019-06-20T11:13:55.566Z,18496.00
2019-06-20T11:14:56.315Z,17248.00
2019-06-20T11:15:53.642Z,18784.00
2019-06-20T11:18:20.736Z,21280.00
2019-06-20T11:25:26.952Z,17408.00
2019-06-20T11:26:19.412Z,14980.00
2019-06-20T11:27:24.540Z,14736.00
2019-06-20T11:28:41.418Z,15168.00
2019-06-20T11:29:33.250Z,15520.00
2019-06-20T11:30:53.012Z,14792.00
2019-06-20T11:31:23.208Z,15104.00
2019-06-20T11:32:44.237Z,14492.00
2019-06-20T11:33:33.294Z,15360.00
2019-06-20T11:34:42.910Z,17216.00
2019-06-20T11:35:35.968Z,17248.00
2019-06-20T11:36:26.771Z,16736.00
2019-06-20T11:37:25.337Z,15616.00
2019-06-20T11:38:25.122Z,15256.00
2019-06-20T11:39:43.770Z,14800.00
2019-06-20T11:40:48.760Z,14636.00
2019-06-20T11:41:22.803Z,14512.00
2019-06-20T11:42:46.871Z,14896.00
2019-06-20T11:48:42.999Z,16768.00
2019-06-20T11:49:08.212Z,15456.00
2019-06-20T11:53:03.427Z,14036.00
2019-06-20T11:56:58.462Z,12656.00
2019-06-20T11:57:46.825Z,11672.00
2019-06-20T12:03:55.856Z,13876.00
2019-06-20T12:04:26.382Z,13816.00
2019-06-20T12:05:44.771Z,14216.00
2019-06-20T12:08:17.520Z,12928.00
2019-06-20T12:08:54.210Z,11988.00
2019-06-20T12:10:14.886Z,10880.00
2019-06-20T12:12:22.948Z,10372.00
2019-06-20T12:13:28.745Z,10848.00
2019-06-20T12:15:51.781Z,11132.00
2019-06-20T12:21:36.351Z,14380.00
2019-06-20T12:22:09.154Z,14464.00
2019-06-20T12:23:26.639Z,14912.00
2019-06-20T13:22:22.104Z,9072.00
2019-06-20T13:23:45.024Z,8768.00
2019-06-20T13:26:09.530Z,8796.00
2019-06-20T13:26:58.475Z,9140.00
2019-06-20T13:27:53.976Z,9860.00
2019-06-20T13:29:03.351Z,10800.00
2019-06-20T13:29:54.522Z,12068.00
2019-06-20T13:30:56.525Z,12432.00
2019-06-20T13:32:09.124Z,12648.00
2019-06-20T13:32:55.176Z,13236.00
2019-06-20T13:34:16.518Z,13528.00
2019-06-20T13:34:55.525Z,13376.00
2019-06-20T13:36:09.596Z,13420.00
2019-06-20T13:36:58.031Z,11564.00
2019-06-20T13:37:57.696Z,10540.00
2019-06-20T13:38:55.503Z,10352.00
2019-06-20T13:39:57.477Z,9892.00
2019-06-20T13:40:55.157Z,9776.00
2019-06-20T13:42:00.517Z,9672.00
2019-06-20T13:43:17.984Z,8568.00
2019-06-20T13:43:57.992Z,8116.00
2019-06-20T13:44:57.032Z,7860.00
2019-06-20T13:45:57.488Z,7748.00
2019-06-20T13:47:03.521Z,7676.00
2019-06-20T13:47:57.521Z,7664.00
2019-06-20T13:49:04.078Z,7476.00
2019-06-20T13:50:00.018Z,7496.00
2019-06-20T13:50:58.985Z,7068.00
2019-06-20T13:51:58.717Z,7140.00
2019-06-20T13:52:59.534Z,7020.00
2019-06-20T13:54:00.556Z,7320.00
2019-06-20T13:54:58.187Z,7240.00
2019-06-20T13:55:57.823Z,7404.00
2019-06-20T13:57:09.123Z,7724.00
2019-06-20T13:57:59.538Z,8316.00
2019-06-20T13:59:05.832Z,8960.00
2019-06-20T14:00:00.983Z,9872.00
2019-06-20T14:01:07.004Z,10220.00
2019-06-20T14:02:14.024Z,10652.00
2019-06-20T14:03:00.968Z,10832.00
2019-06-20T14:05:34.928Z,11364.00
2019-06-20T14:06:32.473Z,10836.00
2019-06-20T14:07:55.909Z,10964.00
2019-06-20T14:08:33.823Z,10388.00
2019-06-20T14:09:32.218Z,9892.00
2019-06-20T14:10:39.881Z,9408.00
2019-06-20T14:11:35.871Z,8972.00
2019-06-20T14:12:34.083Z,9260.00
2019-06-20T14:13:36.494Z,9336.00
2019-06-20T14:14:36.362Z,9604.00
2019-06-20T14:15:33.811Z,8340.00
2019-06-20T14:16:37.386Z,7740.00
2019-06-20T14:17:49.887Z,8116.00
2019-06-20T14:18:58.910Z,7488.00
2019-06-20T14:19:49.468Z,8220.00
2019-06-20T14:20:34.037Z,8744.00
2019-06-20T14:21:38.037Z,9152.00
2019-06-20T14:22:36.820Z,9472.00
2019-06-20T14:23:41.237Z,9512.00
2019-06-20T14:24:58.390Z,9348.00
2019-06-20T14:25:51.710Z,9724.00
2019-06-20T14:26:37.875Z,9960.00
2019-06-20T14:27:35.846Z,9984.00
2019-06-20T14:28:36.405Z,10152.00
2019-06-20T14:29:58.384Z,10292.00
2019-06-20T14:30:59.324Z,10596.00
2019-06-20T14:31:39.348Z,10288.00
2019-06-20T14:32:53.756Z,9532.00
2019-06-20T14:33:36.472Z,9752.00
2019-06-20T14:34:37.570Z,9260.00
2019-06-20T14:35:54.665Z,9648.00
2019-06-20T14:36:39.839Z,9364.00
2019-06-20T14:37:43.460Z,9724.00
2019-06-20T14:38:40.344Z,9956.00
2019-06-20T14:40:05.381Z,9092.00
2019-06-20T14:40:45.396Z,8712.00
2019-06-20T14:41:46.434Z,8220.00
2019-06-20T14:42:41.396Z,8988.00
2019-06-20T14:43:40.887Z,8876.00
2019-06-20T14:44:44.070Z,9012.00
2019-06-20T14:45:39.853Z,9048.00
2019-06-20T14:46:42.331Z,7944.00
2019-06-20T14:47:44.431Z,8840.00
2019-06-20T14:48:55.223Z,8276.00
2019-06-20T14:49:40.825Z,7884.00
2019-06-20T14:50:44.598Z,7424.00
2019-06-20T14:52:03.366Z,7200.00
2019-06-20T14:52:44.578Z,7280.00
2019-06-20T14:53:43.920Z,6924.00
2019-06-20T14:54:44.509Z,6836.00
2019-06-20T14:55:44.304Z,5780.00
2019-06-20T14:56:44.440Z,6592.00
2019-06-20T14:57:44.611Z,6464.00
2019-06-20T14:58:46.595Z,6312.00
2019-06-20T14:59:46.436Z,6132.00
2019-06-20T15:00:46.458Z,6120.00
2019-06-20T15:01:53.836Z,5944.00
2019-06-20T15:02:45.345Z,5916.00
2019-06-20T15:03:45.567Z,5728.00
2019-06-20T15:05:04.886Z,5608.00
2019-06-20T15:05:58.415Z,5816.00
2019-06-20T15:06:42.311Z,6000.00
2019-06-20T15:07:45.067Z,6188.00
2019-06-20T15:08:46.950Z,6628.00
2019-06-20T15:09:44.431Z,7128.00
2019-06-20T15:10:48.401Z,7560.00
2019-06-20T15:11:51.263Z,7600.00
2019-06-20T15:13:04.359Z,8216.00
2019-06-20T15:13:45.857Z,8568.00
2019-06-20T15:14:45.900Z,8656.00
2019-06-20T15:15:46.477Z,8892.00
2019-06-20T15:16:53.604Z,9312.00
2019-06-20T15:17:50.357Z,10228.00
2019-06-20T15:18:46.461Z,10416.00
2019-06-20T15:20:16.490Z,10428.00
2019-06-20T15:20:51.843Z,10752.00
2019-06-20T15:21:48.610Z,10576.00
2019-06-20T15:24:24.266Z,9948.00
2019-06-20T15:25:22.310Z,9204.00
2019-06-20T15:26:20.350Z,7996.00
2019-06-20T15:27:42.317Z,8024.00
2019-06-20T15:28:29.996Z,8392.00
2019-06-20T15:29:26.102Z,8192.00
2019-06-20T15:30:23.995Z,8068.00
2019-06-20T15:31:23.815Z,8188.00
2019-06-20T15:32:26.965Z,7800.00
2019-06-20T15:33:21.029Z,7336.00
2019-06-20T15:34:21.083Z,7168.00
2019-06-20T15:35:21.872Z,7728.00
2019-06-20T15:36:43.915Z,7532.00
2019-06-20T15:37:22.828Z,7472.00
2019-06-20T15:38:25.467Z,7064.00
2019-06-20T15:39:23.861Z,6964.00
2019-06-20T15:40:20.180Z,6732.00
2019-06-20T15:41:24.396Z,6408.00
2019-06-20T15:42:43.382Z,6064.00
2019-06-20T15:43:24.362Z,5848.00
2019-06-20T15:44:36.374Z,5616.00
2019-06-20T15:45:22.320Z,5432.00
2019-06-20T15:46:23.478Z,5272.00
2019-06-20T15:47:24.325Z,5088.00
2019-06-20T15:48:33.488Z,5052.00
2019-06-20T15:49:26.356Z,4892.00
2019-06-20T15:50:45.121Z,4908.00
2019-06-20T15:51:23.892Z,4984.00
2019-06-20T15:52:24.706Z,5076.00
2019-06-20T15:53:24.335Z,4752.00
2019-06-20T15:54:35.314Z,4944.00
2019-06-20T15:55:23.643Z,4936.00
2019-06-20T15:56:24.570Z,5064.00
2019-06-20T15:57:25.813Z,5044.00
2019-06-20T15:58:25.820Z,5200.00
2019-06-20T15:59:23.830Z,5356.00
2019-06-20T16:00:32.842Z,5380.00
2019-06-20T16:01:39.384Z,5496.00
2019-06-20T16:02:26.359Z,5500.00
2019-06-20T16:03:40.286Z,5192.00
2019-06-20T16:04:25.922Z,5236.00
2019-06-20T16:05:25.321Z,5152.00
2019-06-20T16:06:31.604Z,5128.00
2019-06-20T16:07:45.590Z,4968.00
2019-06-20T16:08:26.382Z,5076.00
2019-06-20T16:09:24.978Z,5020.00
2019-06-20T16:10:49.898Z,4968.00
2019-06-20T16:11:39.869Z,5024.00
2019-06-20T16:12:27.958Z,5052.00
2019-06-20T16:13:41.420Z,5032.00
2019-06-20T16:14:27.427Z,5028.00
2019-06-20T16:15:33.866Z,4988.00
2019-06-20T16:16:27.879Z,4992.00
2019-06-20T16:17:27.870Z,4888.00
2019-06-20T16:23:35.847Z,4200.00
2019-06-20T16:24:34.873Z,4084.00
2019-06-20T16:25:14.656Z,4048.00
2019-06-20T16:26:15.591Z,4112.00
2019-06-20T16:29:03.850Z,3936.00
2019-06-20T16:30:14.022Z,3704.00
2019-06-20T16:30:45.077Z,3440.00
2019-06-20T16:31:45.304Z,3284.00
2019-06-20T16:32:47.023Z,3220.00
2019-06-20T16:34:10.623Z,2992.00
2019-06-20T16:35:06.411Z,2832.00
2019-06-20T16:37:18.378Z,2644.00
2019-06-20T16:38:20.655Z,2560.00
2019-06-20T16:39:29.375Z,2332.00
2019-06-20T16:40:16.630Z,2332.00
2019-06-20T17:32:19.643Z,1936.00
2019-06-20T17:33:19.992Z,2232.00
